Time;durP1;ratioP1;P1;durP2;ratioP2;P2;SDS_P1;SDS_P2;PMS_P1;PMS_P2;Temp;Humidity;BMP_temperature;BMP_pressure;BME280_temperature;BME280_humidity;BME280_pressure;Samples;Min_cycle;Max_cycle;Signal;HPM_P1;HPM_P2
2022/01/06 00:01:32;;;;;;;21.38;3.65;;;;;;;2.66;83.59;101403.91;5086744;28;20041;-71
2022/01/06 00:03:59;;;;;;;23.15;2.60;;;;;;;2.65;83.77;101413.47;5089249;28;20051;-72
2022/01/06 00:06:26;;;;;;;14.68;2.60;;;;;;;2.63;83.71;101415.19;5092274;28;20048;-72
2022/01/06 00:09:14;;;;;;;15.38;2.55;;;;;;;2.57;83.75;101409.91;5089834;28;20041;-73
2022/01/06 00:11:43;;;;;;;15.93;3.22;;;;;;;2.54;83.88;101420.28;5088575;28;20452;-70
2022/01/06 00:17:02;;;;;;;15.23;2.88;;;;;;;2.49;83.85;101422.84;5096871;28;20056;-70
2022/01/06 00:25:00;;;;;;;16.88;2.67;;;;;;;2.46;83.97;101431.47;5095531;28;20048;-70
2022/01/06 00:27:27;;;;;;;12.60;2.15;;;;;;;2.44;84.14;101427.13;5095559;28;20748;-71
2022/01/06 00:29:53;;;;;;;13.00;2.10;;;;;;;2.44;84.18;101437.53;5095551;28;20037;-71
2022/01/06 00:32:20;;;;;;;16.65;2.40;;;;;;;2.43;84.19;101434.03;5092760;28;20050;-70
2022/01/06 00:34:47;;;;;;;20.65;3.10;;;;;;;2.42;84.12;101431.44;5089605;28;20051;-70
2022/01/06 00:37:14;;;;;;;19.73;2.30;;;;;;;2.43;84.25;101433.19;5089349;28;20051;-70
2022/01/06 00:39:40;;;;;;;16.50;2.97;;;;;;;2.42;83.98;101431.44;5089046;28;20415;-71
2022/01/06 00:42:07;;;;;;;14.23;2.40;;;;;;;2.41;84.15;101434.88;5090741;28;20040;-70
2022/01/06 00:44:34;;;;;;;14.73;2.20;;;;;;;2.36;84.23;101437.44;5088031;28;20060;-70
2022/01/06 00:47:01;;;;;;;15.63;2.35;;;;;;;2.36;84.13;101428.72;5089830;28;20407;-69
2022/01/06 00:49:27;;;;;;;12.95;2.42;;;;;;;2.32;84.16;101435.63;5090833;28;20418;-70
2022/01/06 00:51:54;;;;;;;13.13;2.17;;;;;;;2.29;84.42;101438.22;5090424;28;20064;-69
2022/01/06 00:54:21;;;;;;;16.33;2.13;;;;;;;2.27;84.52;101437.31;5088709;28;20044;-69
2022/01/06 00:56:47;;;;;;;21.35;2.40;;;;;;;2.25;84.42;101446.81;5089478;28;20059;-70
2022/01/06 00:59:14;;;;;;;10.43;1.83;;;;;;;2.25;84.48;101444.22;5090493;28;20063;-70
2022/01/06 01:01:41;;;;;;;12.10;1.70;;;;;;;2.22;84.58;101449.34;5091608;28;20047;-71
2022/01/06 01:04:08;;;;;;;14.63;1.90;;;;;;;2.20;84.65;101448.47;5089796;28;20044;-71
2022/01/06 01:06:35;;;;;;;17.30;2.03;;;;;;;2.17;84.64;101449.28;5091576;28;20056;-70
2022/01/06 01:09:02;;;;;;;8.60;1.75;;;;;;;2.17;84.63;101451.91;5090380;28;20044;-69
2022/01/06 01:11:29;;;;;;;16.63;2.08;;;;;;;2.16;84.58;101450.16;5090348;28;20041;-71
2022/01/06 01:13:56;;;;;;;15.07;1.98;;;;;;;2.15;84.65;101449.28;5089686;28;20120;-69
2022/01/06 01:16:30;;;;;;;20.25;2.20;;;;;;;2.16;84.51;101447.53;5089160;28;20044;-68
2022/01/06 01:19:00;;;;;;;12.30;2.70;;;;;;;2.14;84.57;101455.34;5087192;28;20045;-69
2022/01/06 01:21:29;;;;;;;17.20;2.72;;;;;;;2.13;84.60;101455.31;5082919;28;20052;-66
2022/01/06 01:23:59;;;;;;;17.00;2.65;;;;;;;2.10;84.73;101461.34;5089848;28;20056;-66
2022/01/06 01:26:27;;;;;;;16.20;2.47;;;;;;;2.08;84.84;101459.56;5090625;28;20048;-68
2022/01/06 01:28:54;;;;;;;15.20;2.38;;;;;;;2.06;84.74;101463.88;5091034;28;20098;-68
2022/01/06 01:31:26;;;;;;;12.95;2.63;;;;;;;2.05;84.75;101472.53;5091908;28;20048;-68
2022/01/06 01:33:56;;;;;;;13.02;2.35;;;;;;;2.03;84.81;101471.66;5089965;28;20052;-68
2022/01/06 01:36:23;;;;;;;11.70;2.42;;;;;;;2.01;84.64;101471.59;5092383;28;20041;-69
2022/01/06 01:38:50;;;;;;;13.23;2.22;;;;;;;2.01;84.49;101476.81;5094531;28;20048;-67
2022/01/06 01:41:17;;;;;;;14.43;2.42;;;;;;;2.04;84.24;101479.47;5093418;28;20492;-68
2022/01/06 01:43:48;;;;;;;9.10;1.45;;;;;;;2.04;84.11;101492.47;5092120;28;20066;-69
2022/01/06 01:46:17;;;;;;;16.85;2.00;;;;;;;2.04;83.92;101492.47;5089524;28;20052;-68
2022/01/06 01:48:53;;;;;;;15.05;2.53;;;;;;;2.03;84.03;101492.47;5089365;28;20502;-69
2022/01/06 01:51:19;;;;;;;12.02;1.77;;;;;;;2.01;84.04;101502.81;5084732;28;20056;-67
2022/01/06 01:53:46;;;;;;;12.75;2.30;;;;;;;1.99;83.88;101495.00;5084708;28;20048;-71
2022/01/06 01:56:13;;;;;;;15.13;2.20;;;;;;;1.99;83.83;101507.13;5089903;28;20792;-67
2022/01/06 01:58:41;;;;;;;18.20;2.50;;;;;;;1.97;84.02;101504.50;5086478;28;20076;-68
2022/01/06 02:01:08;;;;;;;11.00;2.03;;;;;;;1.95;83.95;101508.78;5088181;28;20052;-67
2022/01/06 02:03:36;;;;;;;14.43;2.63;;;;;;;1.94;84.01;101508.78;5086344;28;20466;-68
2022/01/06 02:06:03;;;;;;;18.10;2.03;;;;;;;1.93;83.88;101513.13;5089416;28;20044;-69
2022/01/06 02:08:31;;;;;;;17.13;2.95;;;;;;;1.94;83.71;101527.84;5087092;28;20052;-68
2022/01/06 02:10:58;;;;;;;15.70;2.05;;;;;;;1.93;83.74;101520.03;5089185;28;20545;-69
2022/01/06 02:13:28;;;;;;;17.35;2.97;;;;;;;1.93;83.62;101533.03;5090812;28;20139;-69
2022/01/06 02:16:01;;;;;;;14.52;2.10;;;;;;;1.92;83.53;101534.78;5089504;28;21235;-70
2022/01/06 02:18:28;;;;;;;16.88;2.42;;;;;;;1.92;83.51;101526.97;5087419;28;20110;-66
2022/01/06 02:20:55;;;;;;;15.23;2.63;;;;;;;1.90;83.40;101525.16;5090355;28;20045;-67
2022/01/06 02:23:24;;;;;;;16.42;2.65;;;;;;;1.90;83.25;101522.56;5088376;28;20495;-65
2022/01/06 02:25:51;;;;;;;12.77;1.98;;;;;;;1.85;83.42;101531.19;5088140;28;20052;-67
2022/01/06 02:28:22;;;;;;;12.48;1.95;;;;;;;1.84;83.38;101536.34;5094792;28;20045;-67
2022/01/06 02:30:51;;;;;;;14.68;2.40;;;;;;;1.82;83.36;101538.94;5087232;28;20051;-68
2022/01/06 02:33:19;;;;;;;15.23;2.47;;;;;;;1.83;83.37;101538.09;5088534;28;20033;-67
2022/01/06 02:35:48;;;;;;;14.20;2.22;;;;;;;1.82;83.18;101538.94;5089615;28;20059;-67
2022/01/06 02:38:17;;;;;;;11.25;1.80;;;;;;;1.83;83.21;101538.09;5087525;28;20558;-67
2022/01/06 02:40:45;;;;;;;13.43;2.58;;;;;;;1.82;82.99;101527.66;5088097;28;20048;-68
2022/01/06 02:43:15;;;;;;;20.20;2.42;;;;;;;1.81;83.06;101529.38;5088673;28;20045;-68
2022/01/06 02:45:43;;;;;;;12.68;2.40;;;;;;;1.82;82.82;101538.06;5095339;28;20473;-67
2022/01/06 02:48:10;;;;;;;13.80;2.38;;;;;;;1.86;82.68;101529.44;5097577;28;20047;-67
2022/01/06 02:50:43;;;;;;;16.20;3.70;;;;;;;1.86;82.63;101534.66;5097377;28;20048;-67
2022/01/06 02:53:12;;;;;;;15.00;2.50;;;;;;;1.84;82.58;101532.03;5095339;28;20048;-68
2022/01/06 02:55:49;;;;;;;17.88;2.97;;;;;;;1.83;82.60;101532.88;5095843;28;20040;-68
2022/01/06 02:58:36;;;;;;;14.25;3.08;;;;;;;1.77;82.71;101532.78;5096473;28;20051;-66
2022/01/06 03:01:02;;;;;;;17.67;2.55;;;;;;;1.74;82.86;101537.03;5097283;28;20040;-68
2022/01/06 03:03:29;;;;;;;15.50;3.25;;;;;;;1.70;82.75;101531.81;5093403;28;20048;-69
2022/01/06 03:05:56;;;;;;;16.13;2.50;;;;;;;1.69;82.79;101540.44;5094095;28;20039;-70
2022/01/06 03:08:23;;;;;;;10.63;2.47;;;;;;;1.68;82.91;101537.81;5090874;28;20055;-70
2022/01/06 03:10:50;;;;;;;9.88;2.55;;;;;;;1.69;82.73;101539.56;5090651;28;20051;-70
2022/01/06 03:13:17;;;;;;;12.25;2.13;;;;;;;1.67;82.93;101536.94;5092730;28;20051;-70
2022/01/06 03:15:44;;;;;;;17.00;2.97;;;;;;;1.64;82.95;101542.06;5092797;28;20120;-71
2022/01/06 03:18:10;;;;;;;15.13;2.60;;;;;;;1.61;83.17;101549.84;5092510;28;20042;-71
2022/01/06 03:20:37;;;;;;;13.80;2.38;;;;;;;1.59;83.26;101548.94;5092501;28;20045;-68
2022/01/06 03:23:04;;;;;;;14.30;2.90;;;;;;;1.57;83.26;101552.34;5096133;28;20782;-69
2022/01/06 03:25:31;;;;;;;12.82;2.38;;;;;;;1.54;83.39;101553.16;5094494;28;20048;-70
2022/01/06 03:27:57;;;;;;;8.65;2.55;;;;;;;1.53;83.43;101556.59;5091882;28;20040;-70
2022/01/06 03:30:24;;;;;;;15.10;2.15;;;;;;;1.53;83.08;101560.09;5089181;28;20508;-70
2022/01/06 03:32:51;;;;;;;14.13;2.50;;;;;;;1.53;83.09;101567.88;5093755;28;20040;-70
2022/01/06 03:35:22;;;;;;;19.63;2.85;;;;;;;1.53;83.00;101565.28;5094312;28;20127;-68
2022/01/06 03:37:50;;;;;;;9.93;2.63;;;;;;;1.52;83.10;101560.94;5094594;28;20049;-70
2022/01/06 03:40:17;;;;;;;14.52;2.50;;;;;;;1.50;83.12;101564.34;5088829;28;20078;-68
2022/01/06 03:42:44;;;;;;;16.13;2.05;;;;;;;1.50;83.10;101560.03;5091151;28;20044;-69
2022/01/06 03:45:15;;;;;;;16.63;2.50;;;;;;;1.49;83.20;101565.19;5092820;28;20127;-69
2022/01/06 03:47:43;;;;;;;10.88;2.30;;;;;;;1.48;83.03;101572.09;5091706;28;20755;-70
2022/01/06 03:50:14;;;;;;;13.35;2.60;;;;;;;1.45;83.25;101572.06;5091623;28;20430;-69
2022/01/06 03:52:41;;;;;;;13.77;2.15;;;;;;;1.46;83.40;101575.53;5091601;28;20049;-69
2022/01/06 03:55:12;;;;;;;16.95;2.88;;;;;;;1.44;83.36;101570.31;5089115;28;20099;-69
2022/01/06 03:57:38;;;;;;;15.15;2.22;;;;;;;1.46;83.43;101575.53;5092047;28;20499;-68
2022/01/06 04:00:11;;;;;;;21.70;2.78;;;;;;;1.44;83.43;101577.22;5090946;28;20152;-69
2022/01/06 04:02:39;;;;;;;19.55;2.72;;;;;;;1.42;83.44;101578.94;5095693;28;20044;-68
2022/01/06 04:05:08;;;;;;;6.53;1.63;;;;;;;1.43;83.36;101580.66;5101891;28;20048;-67
2022/01/06 04:07:36;;;;;;;15.10;2.75;;;;;;;1.38;83.50;101589.25;5095784;28;20041;-69
2022/01/06 04:10:06;;;;;;;14.95;2.92;;;;;;;1.37;83.66;101584.03;5095751;28;20052;-68
2022/01/06 04:12:35;;;;;;;13.95;2.28;;;;;;;1.33;83.73;101583.06;5095940;28;20042;-68
2022/01/06 04:15:10;;;;;;;11.70;2.13;;;;;;;1.33;83.73;101585.69;5095627;28;20059;-70
2022/01/06 04:17:38;;;;;;;15.18;2.30;;;;;;;1.28;83.81;101592.53;5096058;28;20075;-69
2022/01/06 04:20:07;;;;;;;17.02;2.28;;;;;;;1.27;83.78;101600.28;5091623;28;20049;-69
2022/01/06 04:22:35;;;;;;;17.38;2.30;;;;;;;1.23;84.11;101605.41;5090606;28;20110;-68
2022/01/06 04:25:04;;;;;;;17.08;2.20;;;;;;;1.21;84.18;101606.25;5089000;28;20127;-68
2022/01/06 04:27:32;;;;;;;16.88;2.58;;;;;;;1.18;84.21;101596.63;5089438;28;20048;-69
2022/01/06 04:29:58;;;;;;;13.65;2.47;;;;;;;1.18;84.25;101604.44;5090716;28;20147;-67
2022/01/06 04:32:25;;;;;;;12.93;2.40;;;;;;;1.19;84.36;101600.13;5091576;28;20115;-70
2022/01/06 04:34:52;;;;;;;15.65;2.60;;;;;;;1.18;84.18;101606.16;5093547;28;20050;-70
2022/01/06 04:37:19;;;;;;;13.30;2.28;;;;;;;1.16;84.23;101608.75;5095905;28;20476;-69
2022/01/06 04:39:45;;;;;;;17.52;2.95;;;;;;;1.16;84.22;101611.34;5096272;28;20056;-70
2022/01/06 04:42:12;;;;;;;19.70;3.00;;;;;;;1.15;84.18;101613.88;5090515;28;20048;-70
2022/01/06 04:44:39;;;;;;;20.58;2.67;;;;;;;1.14;84.33;101625.13;5091436;28;20048;-69
2022/01/06 04:47:06;;;;;;;20.08;2.97;;;;;;;1.13;84.37;101623.34;5088606;28;20475;-70
2022/01/06 04:49:33;;;;;;;16.95;2.40;;;;;;;1.14;84.40;101614.72;5090112;28;20051;-70
2022/01/06 04:52:01;;;;;;;18.25;2.50;;;;;;;1.14;84.24;101622.50;5092753;28;20477;-70
2022/01/06 04:54:27;;;;;;;14.88;2.65;;;;;;;1.13;84.38;101624.25;5087781;28;20049;-71
2022/01/06 04:56:57;;;;;;;18.13;2.70;;;;;;;1.11;84.20;101628.53;5090484;28;20049;-70
2022/01/06 04:59:24;;;;;;;14.35;2.63;;;;;;;1.11;84.33;101633.72;5093332;28;20048;-69
2022/01/06 05:01:50;;;;;;;13.73;2.55;;;;;;;1.08;84.24;101631.94;5091507;28;20399;-69
2022/01/06 05:04:17;;;;;;;12.00;2.63;;;;;;;1.07;84.23;101635.38;5081605;28;20076;-69
2022/01/06 05:06:44;;;;;;;18.85;2.75;;;;;;;1.06;84.29;101637.97;5089443;28;20044;-67
2022/01/06 05:09:11;;;;;;;20.52;2.70;;;;;;;1.02;84.46;101637.00;5090660;28;20047;-68
2022/01/06 05:11:38;;;;;;;12.55;2.03;;;;;;;1.00;84.54;101640.41;5089531;28;20052;-67
2022/01/06 05:14:04;;;;;;;11.48;1.75;;;;;;;0.98;84.65;101650.78;5089871;28;20048;-67
2022/01/06 05:16:31;;;;;;;19.40;2.72;;;;;;;0.96;84.76;101649.00;5088755;28;20052;-66
2022/01/06 05:18:58;;;;;;;18.88;3.15;;;;;;;0.93;84.76;101650.66;5089821;28;20044;-67
2022/01/06 05:21:29;;;;;;;15.65;2.55;;;;;;;0.91;84.88;101646.28;5092381;28;20040;-67
2022/01/06 05:23:56;;;;;;;16.83;2.30;;;;;;;0.90;84.82;101649.72;5088422;28;20052;-67
2022/01/06 05:26:23;;;;;;;15.90;2.38;;;;;;;0.88;84.99;101656.59;5088130;28;20040;-68
2022/01/06 05:28:50;;;;;;;16.77;2.72;;;;;;;0.86;84.91;101661.75;5092800;28;20493;-66
2022/01/06 05:31:17;;;;;;;13.80;2.30;;;;;;;0.83;85.06;101659.09;5093452;28;20781;-67
2022/01/06 05:33:44;;;;;;;20.40;3.10;;;;;;;0.82;85.00;101669.41;5088129;28;20053;-69
2022/01/06 05:36:10;;;;;;;16.38;2.42;;;;;;;0.80;85.05;101668.53;5089636;28;20473;-69
2022/01/06 05:38:37;;;;;;;17.52;2.50;;;;;;;0.79;85.24;101669.38;5086515;28;20525;-69
2022/01/06 05:41:04;;;;;;;17.13;2.80;;;;;;;0.77;85.14;101682.28;5084412;28;22256;-68
2022/01/06 05:43:30;;;;;;;16.67;2.20;;;;;;;0.77;85.24;101680.59;5089510;28;20518;-68
2022/01/06 05:45:58;;;;;;;13.05;2.20;;;;;;;0.79;85.17;101680.63;5088495;28;20098;-68
2022/01/06 05:48:25;;;;;;;17.73;2.17;;;;;;;0.80;85.26;101684.09;5089266;28;20061;-69
2022/01/06 05:50:52;;;;;;;13.63;2.33;;;;;;;0.81;85.18;101684.13;5088321;28;20514;-68
2022/01/06 05:53:19;;;;;;;15.05;3.25;;;;;;;0.81;85.23;101686.72;5090944;28;20508;-69
2022/01/06 05:55:46;;;;;;;20.33;2.72;;;;;;;0.79;85.17;101685.81;5088473;28;20574;-68
2022/01/06 05:58:13;;;;;;;12.55;2.72;;;;;;;0.77;85.39;101679.69;5085864;28;20055;-67
2022/01/06 06:00:42;;;;;;;13.35;2.08;;;;;;;0.75;85.15;101687.47;5088522;28;20063;-68
2022/01/06 06:03:09;;;;;;;16.05;2.50;;;;;;;0.73;85.26;101689.13;5089059;28;20081;-64
2022/01/06 06:05:36;;;;;;;14.18;2.35;;;;;;;0.70;85.23;101694.28;5088937;28;20049;-66
2022/01/06 06:08:03;;;;;;;17.77;2.97;;;;;;;0.68;85.08;101695.06;5086526;28;20044;-68
2022/01/06 06:10:29;;;;;;;13.93;2.53;;;;;;;0.64;85.09;101699.28;5089078;28;20057;-68
2022/01/06 06:12:56;;;;;;;14.55;2.42;;;;;;;0.61;85.10;101700.09;5088591;28;20499;-66
2022/01/06 06:15:23;;;;;;;13.93;2.53;;;;;;;0.59;85.34;101701.78;5085260;28;20479;-67
2022/01/06 06:17:50;;;;;;;15.90;2.72;;;;;;;0.57;85.33;101711.25;5085938;28;20044;-67
2022/01/06 06:20:16;;;;;;;16.10;2.50;;;;;;;0.57;85.53;101716.44;5091190;28;20052;-68
2022/01/06 06:22:44;;;;;;;10.63;2.47;;;;;;;0.59;85.41;101719.94;5093310;28;20063;-68
2022/01/06 06:25:11;;;;;;;15.05;2.53;;;;;;;0.59;85.50;101719.94;5089561;28;20052;-68
2022/01/06 06:27:38;;;;;;;17.13;2.67;;;;;;;0.59;85.57;101726.88;5097550;28;20048;-67
2022/01/06 06:30:05;;;;;;;16.58;3.08;;;;;;;0.57;85.58;101737.19;5094766;28;20057;-68
2022/01/06 06:32:33;;;;;;;17.00;2.30;;;;;;;0.54;85.53;101733.63;5085611;28;20144;-68
2022/01/06 06:35:02;;;;;;;12.15;2.38;;;;;;;0.51;85.43;101729.25;5093811;28;20552;-66
2022/01/06 06:37:29;;;;;;;16.40;2.88;;;;;;;0.51;85.30;101738.78;5077635;28;20077;-67
2022/01/06 06:39:57;;;;;;;16.10;2.80;;;;;;;0.51;85.66;101746.56;5082064;28;20053;-67
2022/01/06 06:42:25;;;;;;;14.73;3.50;;;;;;;0.49;85.51;101743.91;5087875;28;20814;-66
2022/01/06 06:44:52;;;;;;;8.38;2.40;;;;;;;0.49;85.42;101751.69;5088001;28;20052;-70
2022/01/06 06:47:19;;;;;;;15.27;2.50;;;;;;;0.47;85.60;101750.75;5095955;28;20045;-67
2022/01/06 06:49:46;;;;;;;11.38;2.85;;;;;;;0.46;85.49;101754.19;5079939;28;20044;-70
2022/01/06 06:52:14;;;;;;;10.65;2.92;;;;;;;0.45;85.57;101757.66;5088070;28;20072;-66
2022/01/06 06:54:41;;;;;;;18.08;4.18;;;;;;;0.46;85.75;101749.91;5090105;28;20044;-67
2022/01/06 06:57:08;;;;;;;12.98;3.03;;;;;;;0.50;85.76;101761.22;5089628;28;20063;-64
2022/01/06 06:59:36;;;;;;;16.45;3.72;;;;;;;0.52;85.52;101762.16;5088853;28;20041;-64
2022/01/06 07:02:03;;;;;;;16.50;3.60;;;;;;;0.52;85.67;101762.16;5091288;28;20128;-64
2022/01/06 07:04:30;;;;;;;13.43;3.38;;;;;;;0.51;85.58;101769.91;5088868;28;20049;-65
2022/01/06 07:07:12;;;;;;;16.38;3.40;;;;;;;0.49;85.49;101766.41;5089741;28;20098;-67
2022/01/06 07:09:39;;;;;;;8.60;2.83;;;;;;;0.48;85.71;101775.88;5089071;28;20052;-68
2022/01/06 07:12:07;;;;;;;16.55;3.08;;;;;;;0.46;85.45;101770.66;5089498;28;21960;-68
2022/01/06 07:14:34;;;;;;;12.75;2.63;;;;;;;0.47;85.61;101776.72;5089922;28;20048;-71
2022/01/06 07:17:02;;;;;;;22.10;3.17;;;;;;;0.48;85.71;101782.81;5090815;28;20548;-66
2022/01/06 07:19:28;;;;;;;13.80;3.10;;;;;;;0.48;85.62;101782.81;5090799;28;20462;-70
2022/01/06 07:21:55;;;;;;;16.02;3.20;;;;;;;0.46;85.87;101788.81;5089666;28;20064;-64
2022/01/06 07:24:22;;;;;;;17.27;3.13;;;;;;;0.47;85.78;101797.47;5089257;28;20097;-67
2022/01/06 07:26:49;;;;;;;18.67;3.33;;;;;;;0.46;85.73;101793.13;5092588;28;20139;-67
2022/01/06 07:29:15;;;;;;;14.40;3.38;;;;;;;0.44;85.71;101800.00;5089805;28;20498;-65
2022/01/06 07:31:42;;;;;;;15.23;3.53;;;;;;;0.43;85.71;101796.50;5092956;28;20502;-65
2022/01/06 07:34:09;;;;;;;20.38;3.97;;;;;;;0.44;85.90;101798.28;5089119;28;20127;-65
2022/01/06 07:36:36;;;;;;;13.95;3.42;;;;;;;0.45;85.72;101812.16;5090135;28;20045;-66
2022/01/06 07:39:04;;;;;;;20.20;3.30;;;;;;;0.45;85.55;101814.75;5090028;28;20151;-65
2022/01/06 07:41:31;;;;;;;14.82;3.60;;;;;;;0.43;85.46;101817.28;5090951;28;20084;-63
2022/01/06 07:43:58;;;;;;;18.02;3.20;;;;;;;0.42;85.65;101823.28;5090874;28;20055;-63
2022/01/06 07:46:25;;;;;;;16.08;3.25;;;;;;;0.43;85.59;101816.41;5083894;28;20033;-64
2022/01/06 07:48:57;;;;;;;13.38;3.08;;;;;;;0.41;85.58;101818.06;5079947;28;20133;-63
2022/01/06 07:51:26;;;;;;;15.93;3.30;;;;;;;0.39;85.41;101825.81;5086539;28;20138;-64
2022/01/06 07:53:54;;;;;;;18.90;3.85;;;;;;;0.37;85.42;101831.78;5082948;28;20040;-65
2022/01/06 07:56:22;;;;;;;14.60;3.28;;;;;;;0.35;85.39;101828.28;5086403;28;20189;-64
2022/01/06 07:58:49;;;;;;;13.85;3.47;;;;;;;0.34;85.31;101832.59;5085792;28;20040;-64
2022/01/06 08:01:16;;;;;;;11.32;3.28;;;;;;;0.36;85.63;101830.91;5090997;28;20044;-63
2022/01/06 08:03:44;;;;;;;15.00;3.40;;;;;;;0.43;85.58;101829.38;5091614;28;20036;-68
2022/01/06 08:06:12;;;;;;;14.60;3.17;;;;;;;0.49;85.57;101833.84;5086030;28;20048;-65
2022/01/06 08:08:39;;;;;;;8.75;3.17;;;;;;;0.50;85.43;101835.63;5091771;28;20049;-63
2022/01/06 08:11:07;;;;;;;10.85;3.50;;;;;;;0.50;85.26;101836.47;5082415;28;20044;-69
2022/01/06 08:13:34;;;;;;;10.77;3.33;;;;;;;0.51;85.24;101837.38;5087148;28;20625;-64
2022/01/06 08:16:01;;;;;;;15.05;3.95;;;;;;;0.52;85.38;101840.00;5091401;28;20049;-67
2022/01/06 08:18:28;;;;;;;13.82;4.53;;;;;;;0.52;85.20;101832.22;5081342;28;20052;-64
2022/01/06 08:20:55;;;;;;;14.95;4.20;;;;;;;0.56;85.37;101833.19;5089089;28;20049;-66
2022/01/06 08:23:22;;;;;;;12.88;3.03;;;;;;;0.61;85.38;101837.66;5087632;28;20076;-63
2022/01/06 08:25:49;;;;;;;13.77;3.83;;;;;;;0.66;85.23;101835.19;5082907;28;20049;-67
2022/01/06 08:28:16;;;;;;;17.88;4.25;;;;;;;0.69;85.15;101845.66;5081402;28;20055;-63
2022/01/06 08:30:43;;;;;;;12.85;3.67;;;;;;;0.73;85.04;101844.00;5084855;28;20049;-64
2022/01/06 08:33:10;;;;;;;14.85;3.75;;;;;;;0.78;85.10;101845.00;5086613;28;20511;-63
2022/01/06 08:35:37;;;;;;;16.10;3.47;;;;;;;0.83;84.89;101838.22;5087377;28;20061;-64
2022/01/06 08:38:03;;;;;;;13.68;3.65;;;;;;;0.88;84.75;101846.13;5086978;28;20040;-65
2022/01/06 08:40:32;;;;;;;15.85;3.50;;;;;;;0.93;84.66;101845.41;5086401;28;20044;-63
2022/01/06 08:43:00;;;;;;;15.98;3.38;;;;;;;0.99;84.54;101849.00;5081080;28;20102;-67
2022/01/06 08:45:26;;;;;;;14.30;3.20;;;;;;;1.04;84.43;101850.00;5084205;28;20060;-63
2022/01/06 08:47:55;;;;;;;10.32;3.60;;;;;;;1.08;84.42;101854.41;5088057;28;20087;-63
2022/01/06 08:50:22;;;;;;;15.20;2.70;;;;;;;1.15;84.21;101850.25;5088294;28;20510;-63
2022/01/06 08:52:51;;;;;;;16.52;3.97;;;;;;;1.21;84.27;101859.09;5089601;28;20065;-63
2022/01/06 08:55:18;;;;;;;14.88;3.80;;;;;;;1.30;84.31;101863.63;5087417;28;20132;-63
2022/01/06 08:57:45;;;;;;;14.70;3.42;;;;;;;1.36;84.10;101855.97;5089982;28;20057;-65
2022/01/06 09:00:15;;;;;;;13.98;3.80;;;;;;;1.42;84.11;101868.25;5087152;28;20470;-65
2022/01/06 09:02:42;;;;;;;25.27;9.23;;;;;;;1.49;83.99;101851.94;5090287;28;20497;-64
2022/01/06 09:05:10;;;;;;;16.00;4.05;;;;;;;1.55;83.69;101859.00;5082123;28;20480;-65
2022/01/06 09:07:37;;;;;;;20.10;4.93;;;;;;;1.63;83.80;101864.41;5088322;28;20856;-67
2022/01/06 09:10:04;;;;;;;15.65;3.25;;;;;;;1.70;83.59;101872.38;5090124;28;20048;-66
2022/01/06 09:12:31;;;;;;;17.10;5.70;;;;;;;1.78;83.79;101875.13;5083789;28;20053;-66
2022/01/06 09:14:58;;;;;;;12.35;2.95;;;;;;;1.86;83.25;101872.72;5092846;28;20471;-66
2022/01/06 09:17:25;;;;;;;14.68;6.30;;;;;;;1.93;83.10;101876.31;5088792;28;20164;-67
2022/01/06 09:19:52;;;;;;;14.68;5.68;;;;;;;1.97;82.79;101884.22;5083999;28;20083;-64
2022/01/06 09:22:18;;;;;;;18.00;8.57;;;;;;;2.04;82.79;101886.94;5072129;28;20051;-65
2022/01/06 09:24:45;;;;;;;11.23;4.90;;;;;;;2.10;82.67;101887.09;5071578;28;20044;-67
2022/01/06 09:27:12;;;;;;;15.23;3.30;;;;;;;2.16;82.57;101889.81;5089140;28;20055;-65
2022/01/06 09:29:38;;;;;;;13.77;3.80;;;;;;;2.23;82.47;101880.44;5088660;28;20053;-65
2022/01/06 09:32:06;;;;;;;16.15;2.85;;;;;;;2.30;82.37;101887.50;5072608;28;20041;-66
2022/01/06 09:34:32;;;;;;;16.02;2.95;;;;;;;2.37;82.25;101885.91;5072538;28;20472;-66
2022/01/06 09:36:59;;;;;;;15.07;3.25;;;;;;;2.43;82.12;101891.25;5082072;28;20045;-65
2022/01/06 09:39:26;;;;;;;11.35;3.17;;;;;;;2.49;81.90;101894.84;5086798;28;20959;-66
2022/01/06 09:41:53;;;;;;;13.25;2.70;;;;;;;2.55;81.70;101896.69;5077991;28;20049;-65
2022/01/06 09:44:20;;;;;;;11.38;3.17;;;;;;;2.64;81.63;101898.59;5092676;28;20047;-65
2022/01/06 09:46:57;;;;;;;14.73;3.55;;;;;;;2.68;81.33;101895.22;5092654;28;20419;-65
2022/01/06 09:49:25;;;;;;;13.02;3.67;;;;;;;2.74;81.05;101897.06;5091032;28;20032;-66
2022/01/06 09:51:51;;;;;;;10.70;2.72;;;;;;;2.78;80.79;101897.16;5082289;28;20044;-65
2022/01/06 09:54:19;;;;;;;15.80;3.25;;;;;;;2.84;80.72;101905.94;5095842;28;20052;-65
2022/01/06 09:56:46;;;;;;;13.93;3.13;;;;;;;2.88;80.51;101903.41;5082558;28;20071;-65
2022/01/06 09:59:13;;;;;;;15.85;3.50;;;;;;;2.94;80.34;101910.47;5076737;28;20049;-64
2022/01/06 10:01:41;;;;;;;11.07;2.80;;;;;;;2.99;80.16;101915.75;5096084;28;20792;-64
2022/01/06 10:04:30;;;;;;;12.05;3.17;;;;;;;3.03;80.19;101907.16;5083685;28;20087;-65
2022/01/06 10:07:08;;;;;;;14.82;4.57;;;;;;;3.05;79.97;101908.94;5076283;28;20036;-66
2022/01/06 10:09:39;;;;;;;13.90;4.38;;;;;;;3.09;80.07;101915.97;5075738;28;20139;-65
2022/01/06 10:12:13;;;;;;;15.50;6.10;;;;;;;3.16;79.87;101913.44;5075867;28;20053;-66
2022/01/06 10:14:44;;;;;;;14.83;4.93;;;;;;;3.22;79.79;101909.22;5074338;28;20107;-65
2022/01/06 10:17:16;;;;;;;27.17;11.43;;;;;;;3.28;79.74;101910.16;5080430;28;20106;-65
2022/01/06 10:19:45;;;;;;;16.45;6.25;;;;;;;3.35;79.77;101904.22;5095939;28;20052;-64
2022/01/06 10:22:19;;;;;;;9.38;3.03;;;;;;;3.41;79.38;101896.50;5095691;28;20055;-66
2022/01/06 10:24:49;;;;;;;28.20;10.68;;;;;;;3.47;79.35;101901.81;5085969;28;20127;-66
2022/01/06 10:27:20;;;;;;;16.73;5.65;;;;;;;3.52;79.28;101897.56;5075876;28;20049;-65
2022/01/06 10:29:52;;;;;;;13.68;5.03;;;;;;;3.58;79.31;101892.41;5088425;28;20525;-67
2022/01/06 10:32:22;;;;;;;10.15;3.47;;;;;;;3.64;78.95;101891.63;5087722;28;20052;-68
2022/01/06 10:34:56;;;;;;;8.10;3.28;;;;;;;3.70;78.77;101889.16;5075268;28;20057;-66
2022/01/06 10:37:26;;;;;;;12.73;2.60;;;;;;;3.75;78.51;101891.81;5087710;28;20055;-64
2022/01/06 10:39:59;;;;;;;12.65;3.15;;;;;;;3.81;78.49;101883.22;5075497;28;20064;-66
2022/01/06 10:42:29;;;;;;;14.02;3.35;;;;;;;3.85;78.33;101893.72;5075158;28;20080;-69
2022/01/06 10:45:04;;;;;;;12.82;3.53;;;;;;;3.91;78.19;101890.31;5075409;28;20041;-66
2022/01/06 10:47:34;;;;;;;13.38;4.70;;;;;;;3.97;78.29;101887.78;5075345;28;20116;-66
2022/01/06 10:50:10;;;;;;;8.73;3.60;;;;;;;4.06;78.21;101886.16;5075103;28;20092;-65
2022/01/06 10:52:42;;;;;;;21.42;11.13;;;;;;;4.12;78.20;101879.28;5074962;28;20045;-68
2022/01/06 10:55:15;;;;;;;12.35;3.08;;;;;;;4.17;77.80;101881.94;5075408;28;20048;-64
2022/01/06 10:58:13;;;;;;;20.17;4.10;;;;;;;4.22;77.80;101879.41;5075273;28;20056;-65
2022/01/06 11:00:48;;;;;;;8.43;3.67;;;;;;;4.28;77.87;101876.84;5083242;28;20337;-66
2022/01/06 11:03:22;;;;;;;10.13;2.90;;;;;;;4.34;77.57;101882.16;5094047;28;20048;-66
2022/01/06 11:05:56;;;;;;;15.10;3.60;;;;;;;4.40;77.42;101879.63;5091439;28;20063;-65
2022/01/06 11:08:29;;;;;;;8.90;3.08;;;;;;;4.45;77.17;101879.66;5093348;28;20136;-65
2022/01/06 11:13:49;;;;;;;17.08;3.20;;;;;;;4.63;77.64;101887.72;5086189;28;20487;-67
2022/01/06 11:16:19;;;;;;;13.27;3.20;;;;;;;4.75;77.42;101880.88;5079061;28;20127;-67
2022/01/06 11:18:56;;;;;;;13.73;3.45;;;;;;;4.86;77.25;101881.00;5079174;28;20045;-67
2022/01/06 11:21:25;;;;;;;13.68;5.22;;;;;;;4.96;76.98;101880.22;5079583;28;20555;-67
2022/01/06 11:24:13;;;;;;;12.68;3.10;;;;;;;5.06;76.72;101870.72;5090221;28;20537;-66
2022/01/06 11:27:04;;;;;;;11.35;2.90;;;;;;;5.14;76.35;101874.28;5087253;28;20398;-68
2022/01/06 11:29:43;;;;;;;10.65;3.00;;;;;;;5.25;76.19;101877.84;5091745;28;20125;-66
2022/01/06 11:32:23;;;;;;;10.27;2.83;;;;;;;5.35;75.94;101870.97;5089301;28;20048;-66
2022/01/06 11:35:11;;;;;;;11.73;2.75;;;;;;;5.43;76.09;101868.44;5090676;28;20052;-66
2022/01/06 11:37:51;;;;;;;14.73;3.30;;;;;;;5.52;75.93;101867.59;5090184;28;20168;-64
2022/01/06 11:40:35;;;;;;;10.93;2.70;;;;;;;5.60;75.62;101866.81;5084980;28;20041;-66
2022/01/06 11:43:07;;;;;;;10.57;2.72;;;;;;;5.66;75.51;101872.94;5092073;28;20142;-66
2022/01/06 11:45:34;;;;;;;14.48;3.53;;;;;;;5.73;74.73;101866.88;5083089;28;20041;-66